Time;durP1;ratioP1;P1;durP2;ratioP2;P2;SDS_P1;SDS_P2;PMS_P1;PMS_P2;Temp;Humidity;BMP_temperature;BMP_pressure;BME280_temperature;BME280_humidity;BME280_pressure;Samples;Min_cycle;Max_cycle;Signal;HPM_P1;HPM_P2
2021/06/05 00:02:35;;;;;;;8.85;8.05;;;;;;;18.02;100.00;100983.17;256436;1092;114575;-70
2021/06/05 00:07:39;;;;;;;9.78;8.48;;;;;;;17.85;100.00;100984.17;256392;1093;114590;-73
2021/06/05 00:12:42;;;;;;;10.75;9.63;;;;;;;17.74;100.00;100994.77;256453;1093;115127;-74
2021/06/05 00:17:44;;;;;;;11.48;9.58;;;;;;;17.69;100.00;100995.89;259135;1093;114994;-71
2021/06/05 00:22:49;;;;;;;10.65;9.55;;;;;;;17.63;100.00;100990.88;257796;1096;114826;-72
2021/06/05 00:27:51;;;;;;;10.88;9.78;;;;;;;17.63;100.00;100988.17;257498;1096;114794;-71
2021/06/05 00:32:54;;;;;;;13.60;11.10;;;;;;;17.65;100.00;100978.17;257339;1097;114905;-70
2021/06/05 00:37:57;;;;;;;12.85;10.68;;;;;;;17.64;100.00;100986.37;258012;1097;115075;-69
2021/06/05 00:43:00;;;;;;;13.18;10.63;;;;;;;17.73;100.00;100990.33;257883;1096;114811;-70
2021/06/05 00:48:07;;;;;;;11.15;10.00;;;;;;;17.51;100.00;100988.92;258344;1096;115383;-71
2021/06/05 00:53:13;;;;;;;10.95;9.75;;;;;;;17.30;100.00;100967.69;257330;1095;115197;-72
2021/06/05 00:58:19;;;;;;;11.78;10.05;;;;;;;17.19;100.00;100975.55;256534;1096;115018;-70
2021/06/05 01:03:22;;;;;;;10.93;9.43;;;;;;;17.12;100.00;100964.25;257234;1095;115115;-72
2021/06/05 01:08:40;;;;;;;9.45;8.63;;;;;;;17.09;100.00;100963.56;257431;1096;114827;-70
2021/06/05 01:13:59;;;;;;;12.37;9.80;;;;;;;16.95;100.00;100946.38;257824;1095;114421;-71
2021/06/05 01:19:17;;;;;;;12.03;10.90;;;;;;;16.94;100.00;100923.09;257797;1093;114651;-71
2021/06/05 01:24:27;;;;;;;9.37;8.17;;;;;;;17.09;100.00;100909.69;256880;1093;114876;-71
2021/06/05 01:29:35;;;;;;;8.35;7.35;;;;;;;17.19;100.00;100894.73;257168;1093;114823;-70
2021/06/05 01:34:43;;;;;;;8.88;8.05;;;;;;;17.10;100.00;100906.04;258507;1093;114979;-70
2021/06/05 01:39:48;;;;;;;8.25;7.55;;;;;;;17.06;100.00;100899.11;257081;1095;114848;-70
2021/06/05 01:44:54;;;;;;;8.85;8.15;;;;;;;16.93;100.00;100899.81;256566;1097;114970;-70
2021/06/05 01:49:56;;;;;;;10.00;8.70;;;;;;;16.87;100.00;100894.76;259095;1096;114467;-71
2021/06/05 01:55:11;;;;;;;8.83;7.90;;;;;;;16.90;100.00;100889.20;258104;1096;115110;-70
2021/06/05 02:00:25;;;;;;;9.15;7.68;;;;;;;16.88;100.00;100891.11;257421;1095;115038;-70
2021/06/05 02:05:30;;;;;;;9.50;7.55;;;;;;;16.91;100.00;100903.52;256720;1093;114758;-70
2021/06/05 02:10:36;;;;;;;7.93;7.07;;;;;;;16.93;100.00;100905.20;257099;1093;114638;-70
2021/06/05 02:15:50;;;;;;;7.75;7.05;;;;;;;16.87;100.00;100905.53;256820;1096;114767;-73
2021/06/05 02:21:05;;;;;;;8.57;7.70;;;;;;;16.77;100.00;100918.66;257032;1093;115291;-69
2021/06/05 02:26:09;;;;;;;8.30;7.50;;;;;;;16.73;100.00;100915.28;256752;1093;114589;-72
2021/06/05 02:31:12;;;;;;;11.88;8.05;;;;;;;16.71;100.00;100916.33;257159;1093;115370;-74
2021/06/05 02:36:16;;;;;;;8.85;8.00;;;;;;;16.62;100.00;100904.27;256969;1093;115301;-69
2021/06/05 02:41:20;;;;;;;8.20;7.40;;;;;;;16.68;100.00;100900.34;257126;1096;114578;-70
2021/06/05 02:46:35;;;;;;;9.60;7.97;;;;;;;16.62;100.00;100880.05;257778;1093;114858;-70
2021/06/05 02:51:42;;;;;;;8.58;7.70;;;;;;;16.57;100.00;100888.39;257044;1093;114916;-71
2021/06/05 02:56:44;;;;;;;8.48;7.63;;;;;;;16.39;100.00;100890.30;257896;1095;115282;-70
2021/06/05 03:01:47;;;;;;;9.23;8.10;;;;;;;16.48;100.00;100882.66;258518;1093;114488;-71
2021/06/05 03:06:51;;;;;;;8.43;7.63;;;;;;;16.56;100.00;100888.48;256974;1093;114794;-70
2021/06/05 03:11:53;;;;;;;9.53;8.27;;;;;;;16.54;100.00;100887.69;256947;1093;114944;-70
2021/06/05 03:16:55;;;;;;;8.43;7.55;;;;;;;16.44;100.00;100878.39;256971;1094;114456;-70
2021/06/05 03:21:58;;;;;;;8.55;7.75;;;;;;;16.41;100.00;100888.40;257133;1096;114911;-70
2021/06/05 03:27:05;;;;;;;8.48;7.78;;;;;;;16.16;100.00;100877.27;257212;1095;114753;-73
2021/06/05 03:32:08;;;;;;;8.73;8.03;;;;;;;16.24;100.00;100881.28;256812;1096;114770;-71
2021/06/05 03:37:11;;;;;;;8.48;7.68;;;;;;;15.99;100.00;100880.89;257399;1093;114714;-73
2021/06/05 03:42:13;;;;;;;8.70;7.93;;;;;;;16.11;100.00;100880.20;256999;1094;115022;-70
2021/06/05 03:47:19;;;;;;;9.23;8.43;;;;;;;16.01;100.00;100882.53;257023;1093;114636;-72
2021/06/05 03:52:25;;;;;;;8.40;7.65;;;;;;;15.85;100.00;100878.97;257100;1093;114633;-70
2021/06/05 03:57:32;;;;;;;8.93;8.13;;;;;;;15.83;100.00;100883.55;256891;1092;114705;-71
2021/06/05 04:12:09;;;;;;;8.03;7.33;;;;;;;15.62;100.00;100873.84;257780;1093;104205;-71
2021/06/05 04:17:12;;;;;;;9.33;8.53;;;;;;;15.75;100.00;100855.23;256804;1093;114733;-73
2021/06/05 04:22:14;;;;;;;8.40;7.63;;;;;;;15.91;100.00;100851.75;257451;1093;114275;-71
2021/06/05 04:27:17;;;;;;;8.60;7.90;;;;;;;15.94;100.00;100856.94;256893;1093;114569;-71
2021/06/05 04:32:20;;;;;;;8.30;7.60;;;;;;;15.99;100.00;100864.76;257034;1092;115160;-71
2021/06/05 04:37:22;;;;;;;7.70;7.03;;;;;;;16.05;100.00;100859.92;257114;1093;114451;-70
2021/06/05 04:42:24;;;;;;;8.73;7.58;;;;;;;16.01;100.00;100868.23;256952;1093;114080;-71
2021/06/05 04:47:28;;;;;;;8.23;7.43;;;;;;;16.17;100.00;100879.00;257225;1093;114564;-71
2021/06/05 04:52:31;;;;;;;8.03;7.30;;;;;;;16.23;100.00;100889.41;256909;1093;114512;-73
2021/06/05 04:57:34;;;;;;;9.40;8.10;;;;;;;16.27;100.00;100885.63;257015;1093;114257;-70
2021/06/05 05:02:37;;;;;;;8.03;7.33;;;;;;;16.43;100.00;100885.61;256814;1093;114545;-70
2021/06/05 05:07:39;;;;;;;9.25;8.45;;;;;;;16.53;100.00;100880.56;258283;1093;114695;-73
2021/06/05 05:12:42;;;;;;;9.70;8.90;;;;;;;16.56;100.00;100875.02;256843;1093;114445;-71
2021/06/05 05:17:44;;;;;;;10.00;9.00;;;;;;;16.57;100.00;100877.63;256965;1093;114344;-71
2021/06/05 05:22:46;;;;;;;9.90;9.05;;;;;;;16.66;100.00;100876.21;257371;1093;114697;-72
2021/06/05 05:27:50;;;;;;;9.90;8.68;;;;;;;16.73;100.00;100892.89;257331;1093;114565;-71
2021/06/05 05:32:52;;;;;;;10.05;8.70;;;;;;;16.80;100.00;100909.53;256880;1093;114264;-72
2021/06/05 05:37:57;;;;;;;9.08;8.38;;;;;;;16.80;100.00;100909.53;257511;1092;114875;-71
2021/06/05 05:42:59;;;;;;;10.35;8.70;;;;;;;16.76;100.00;100910.69;256398;1093;222864;-72
2021/06/05 05:48:05;;;;;;;9.48;8.68;;;;;;;16.79;100.00;100918.56;256851;1093;114814;-71
2021/06/05 05:53:09;;;;;;;9.05;8.15;;;;;;;16.79;100.00;100919.45;257103;1093;114866;-75
2021/06/05 05:58:16;;;;;;;9.70;8.60;;;;;;;16.87;100.00;100916.30;257783;1093;115389;-72
2021/06/05 06:03:20;;;;;;;9.58;8.63;;;;;;;16.90;100.00;100916.13;256885;1093;114113;-72
2021/06/05 06:08:22;;;;;;;10.90;8.98;;;;;;;16.96;100.00;100918.50;256790;1093;114823;-73
2021/06/05 06:13:27;;;;;;;12.83;9.80;;;;;;;16.96;100.00;100928.38;256665;1092;115388;-73
2021/06/05 06:18:30;;;;;;;9.25;8.35;;;;;;;17.07;100.00;100922.37;257190;1093;113878;-72
2021/06/05 06:23:35;;;;;;;9.58;8.45;;;;;;;17.20;100.00;100928.77;257147;1092;114634;-72
2021/06/05 06:28:40;;;;;;;10.45;9.38;;;;;;;17.29;100.00;100925.53;256837;1092;114484;-71
2021/06/05 06:33:43;;;;;;;10.55;9.58;;;;;;;17.31;100.00;100914.65;257044;1092;114859;-71
2021/06/05 06:38:49;;;;;;;10.43;9.45;;;;;;;17.26;100.00;100923.03;256395;1093;115249;-70
2021/06/05 06:43:57;;;;;;;11.05;9.95;;;;;;;17.35;100.00;100921.61;256396;1093;115186;-72
2021/06/05 06:49:00;;;;;;;10.95;9.80;;;;;;;17.54;100.00;100918.67;256842;1092;115017;-72
2021/06/05 06:54:05;;;;;;;11.35;10.25;;;;;;;17.72;100.00;100918.48;257078;1093;114534;-72
2021/06/05 06:59:10;;;;;;;11.30;10.30;;;;;;;17.86;100.00;100920.34;257035;1093;113703;-71
2021/06/05 07:04:12;;;;;;;;;;;;;;;17.94;100.00;100916.20;258706;1093;116149;-72
2021/06/05 07:09:15;;;;;;;9.90;8.95;;;;;;;18.03;100.00;100914.77;258042;1093;103058;-73
2021/06/05 07:14:18;;;;;;;9.88;9.00;;;;;;;18.17;100.00;100919.31;258114;1092;114532;-71
2021/06/05 07:19:25;;;;;;;9.65;8.75;;;;;;;18.30;100.00;100911.27;257272;1093;116017;-71
2021/06/05 07:24:31;;;;;;;9.13;8.23;;;;;;;18.18;100.00;100894.06;258327;1095;114697;-74
2021/06/05 07:29:38;;;;;;;9.20;8.15;;;;;;;18.10;100.00;100896.38;257287;1096;114838;-73
2021/06/05 07:34:41;;;;;;;10.58;9.63;;;;;;;17.97;100.00;100897.14;258315;1093;115339;-71
2021/06/05 07:39:43;;;;;;;9.08;6.75;;;;;;;17.90;100.00;100901.15;258980;1092;114434;-74
2021/06/05 07:44:45;;;;;;;5.85;5.35;;;;;;;17.91;100.00;100905.58;259046;1096;114217;-72
2021/06/05 07:49:47;;;;;;;5.70;5.20;;;;;;;17.98;100.00;100914.20;259163;1096;114399;-71
2021/06/05 07:54:57;;;;;;;5.90;5.40;;;;;;;18.08;100.00;100917.19;257122;1096;114974;-73
2021/06/05 08:00:15;;;;;;;5.88;5.45;;;;;;;18.06;100.00;100916.41;258339;1096;115144;-73
2021/06/05 08:05:24;;;;;;;5.65;5.15;;;;;;;17.96;100.00;100917.01;258018;1095;115181;-71
2021/06/05 08:10:28;;;;;;;6.20;5.63;;;;;;;18.00;100.00;100913.14;258478;1095;114467;-74
2021/06/05 08:15:34;;;;;;;5.53;4.73;;;;;;;18.09;100.00;100910.83;258114;1096;114785;-75
2021/06/05 08:20:49;;;;;;;5.15;4.68;;;;;;;18.13;100.00;100901.56;257947;1095;114564;-71
2021/06/05 08:25:55;;;;;;;6.08;5.53;;;;;;;18.18;100.00;100902.16;258372;1096;115282;-75
2021/06/05 08:31:06;;;;;;;6.08;5.25;;;;;;;18.39;100.00;100891.80;257671;1095;114605;-73
2021/06/05 08:36:10;;;;;;;6.35;5.85;;;;;;;18.48;100.00;100880.41;258219;1096;114838;-71
2021/06/05 08:41:16;;;;;;;;;;;;;;;18.59;100.00;100881.52;259256;1094;115127;-71
2021/06/05 08:46:30;;;;;;;5.48;5.08;;;;;;;18.81;100.00;100880.97;257705;1095;103192;-71
2021/06/05 08:52:04;;;;;;;6.03;5.53;;;;;;;18.88;100.00;100876.89;258248;1094;114703;-73
2021/06/05 08:57:23;;;;;;;6.18;5.68;;;;;;;18.86;100.00;100878.82;257735;1096;115273;-70
2021/06/05 09:02:28;;;;;;;6.58;6.00;;;;;;;18.87;100.00;100880.55;258278;1095;115124;-72
2021/06/05 09:07:30;;;;;;;7.17;6.57;;;;;;;18.95;100.00;100878.24;258393;1095;114398;-71
2021/06/05 09:12:32;;;;;;;5.93;5.53;;;;;;;18.95;100.00;100880.06;258291;1095;114437;-72
2021/06/05 09:17:48;;;;;;;5.60;5.15;;;;;;;19.05;100.00;100889.28;259901;1096;114390;-70
2021/06/05 09:22:53;;;;;;;6.18;5.58;;;;;;;19.10;100.00;100886.28;262306;1096;114701;-73
2021/06/05 09:28:26;;;;;;;6.03;5.38;;;;;;;19.13;100.00;100888.75;261669;1093;114289;-73
2021/06/05 09:33:38;;;;;;;5.28;4.85;;;;;;;19.33;100.00;100875.70;258391;1095;114793;-70
2021/06/05 09:38:50;;;;;;;6.63;6.10;;;;;;;19.47;100.00;100878.30;258383;1095;114618;-74
2021/06/05 09:44:21;;;;;;;9.48;7.53;;;;;;;19.48;100.00;100874.63;258726;1096;114913;-71
2021/06/05 09:49:40;;;;;;;9.80;8.80;;;;;;;19.41;100.00;100870.63;258696;1096;114986;-72
2021/06/05 10:00:11;;;;;;;9.58;8.78;;;;;;;19.62;100.00;100857.45;258384;1090;114996;-70
2021/06/05 10:05:38;;;;;;;10.93;9.93;;;;;;;19.61;100.00;100857.54;258517;1096;114942;-75
2021/06/05 10:10:44;;;;;;;9.50;8.70;;;;;;;19.89;100.00;100851.92;257425;1096;115099;-72
2021/06/05 10:16:19;;;;;;;10.50;9.60;;;;;;;20.22;100.00;100847.75;258316;1096;114791;-72
2021/06/05 10:21:36;;;;;;;9.60;8.60;;;;;;;20.38;100.00;100835.77;257192;1094;114870;-73
2021/06/05 10:26:43;;;;;;;8.03;7.20;;;;;;;20.72;100.00;100838.70;257628;1096;114792;-73
2021/06/05 10:31:49;;;;;;;8.13;7.40;;;;;;;20.92;100.00;100839.87;258493;1095;114900;-73
2021/06/05 10:36:55;;;;;;;5.60;5.20;;;;;;;20.99;100.00;100829.44;257955;1096;114901;-72
2021/06/05 10:42:09;;;;;;;5.83;5.25;;;;;;;21.26;100.00;100826.40;258151;1096;114559;-72
2021/06/05 10:47:13;;;;;;;6.60;4.70;;;;;;;21.40;100.00;100814.48;258452;1095;114687;-71
2021/06/05 10:52:56;;;;;;;5.80;5.30;;;;;;;21.73;100.00;100807.37;258327;1095;117214;-73
2021/06/05 10:58:26;;;;;;;6.08;5.35;;;;;;;21.76;100.00;100812.56;259512;1095;114382;-72
2021/06/05 11:03:30;;;;;;;5.35;4.45;;;;;;;21.78;100.00;100804.29;257532;1096;114409;-75
2021/06/05 11:08:52;;;;;;;4.80;4.40;;;;;;;22.30;100.00;100801.84;256875;1095;114714;-71
2021/06/05 11:13:54;;;;;;;5.03;4.63;;;;;;;22.53;100.00;100807.25;257922;1096;115056;-71
2021/06/05 11:18:57;;;;;;;4.73;4.30;;;;;;;22.69;100.00;100804.97;257090;1096;206104;-71
2021/06/05 11:23:59;;;;;;;4.18;3.78;;;;;;;23.15;99.85;100801.98;258095;1096;114593;-71
2021/06/05 11:29:21;;;;;;;3.75;3.53;;;;;;;23.34;92.28;100810.29;258453;1096;114589;-73
2021/06/05 11:34:39;;;;;;;3.80;3.58;;;;;;;23.46;88.68;100799.34;257878;1095;114390;-74
2021/06/05 11:39:49;;;;;;;3.58;3.38;;;;;;;24.19;78.15;100793.73;258262;1096;115148;-73
2021/06/05 11:44:57;;;;;;;3.50;3.30;;;;;;;24.63;69.75;100796.94;258473;1095;114310;-72
2021/06/05 11:50:11;;;;;;;3.50;3.00;;;;;;;24.18;72.02;100786.56;257948;1096;114726;-71
2021/06/05 11:55:22;;;;;;;3.55;3.35;;;;;;;24.18;71.35;100775.66;258845;1096;114568;-75
2021/06/05 12:00:39;;;;;;;3.45;2.85;;;;;;;23.88;69.48;100777.45;259304;1095;114397;-75
2021/06/05 12:05:45;;;;;;;2.75;2.50;;;;;;;23.99;72.34;100768.34;257591;1096;114806;-73
2021/06/05 12:10:49;;;;;;;3.20;3.00;;;;;;;24.22;64.16;100768.95;258364;1096;114540;-73
2021/06/05 12:16:03;;;;;;;3.40;3.10;;;;;;;25.28;57.28;100757.23;259287;1094;115512;-72
2021/06/05 12:21:31;;;;;;;3.10;2.88;;;;;;;25.27;54.54;100761.84;258897;1095;114317;-71
2021/06/05 12:26:58;;;;;;;3.63;3.33;;;;;;;23.48;53.51;100754.68;258180;1096;114474;-72
2021/06/05 12:32:26;;;;;;;3.43;3.13;;;;;;;23.23;57.11;100736.95;258573;1096;114931;-73
2021/06/05 12:37:32;;;;;;;3.20;3.00;;;;;;;22.75;56.47;100733.80;257688;1096;114593;-71
2021/06/05 12:42:37;;;;;;;2.80;2.60;;;;;;;22.93;54.74;100735.89;257963;1096;114716;-71
2021/06/05 12:47:47;;;;;;;3.05;2.80;;;;;;;22.75;54.86;100725.64;259201;1095;115112;-71
2021/06/05 12:52:53;;;;;;;2.80;2.60;;;;;;;22.82;52.52;100725.11;257719;1095;114756;-75
2021/06/05 12:58:15;;;;;;;3.40;3.10;;;;;;;22.91;55.31;100721.56;258180;1095;114826;-74
2021/06/05 13:03:19;;;;;;;3.43;3.18;;;;;;;23.05;54.85;100707.63;259076;1096;114963;-72
2021/06/05 13:08:29;;;;;;;2.90;2.70;;;;;;;23.00;54.59;100692.73;258145;1095;114463;-73
2021/06/05 13:13:34;;;;;;;2.83;2.63;;;;;;;22.46;54.63;100694.68;260310;1095;113522;-72
2021/06/05 13:18:47;;;;;;;3.27;2.97;;;;;;;22.88;55.12;100683.80;257209;1095;114563;-70
2021/06/05 13:23:52;;;;;;;3.83;3.40;;;;;;;22.63;54.41;100691.36;257732;1094;113904;-72
2021/06/05 13:29:17;;;;;;;4.77;4.43;;;;;;;22.24;63.39;100682.90;258422;1097;114514;-72
2021/06/05 13:34:21;;;;;;;4.23;3.93;;;;;;;21.92;67.22;100681.91;257764;1096;114882;-72
2021/06/05 13:39:24;;;;;;;4.13;3.73;;;;;;;21.78;65.79;100677.62;258391;1096;114910;-74
2021/06/05 13:44:29;;;;;;;3.95;3.65;;;;;;;21.87;66.17;100684.16;258508;1096;114580;-75
2021/06/05 13:49:33;;;;;;;4.40;4.10;;;;;;;22.42;64.63;100677.78;259421;1096;114990;-72
2021/06/05 13:54:40;;;;;;;4.78;4.38;;;;;;;22.55;63.90;100678.45;258848;1095;114336;-71
2021/06/05 13:59:42;;;;;;;3.88;3.58;;;;;;;22.64;62.82;100687.65;258309;1096;114332;-72
2021/06/05 14:04:50;;;;;;;3.98;3.43;;;;;;;22.85;60.30;100684.94;258463;1096;115139;-75
2021/06/05 14:10:19;;;;;;;3.80;3.50;;;;;;;22.93;60.87;100686.97;258629;1096;114093;31
2021/06/05 14:15:30;;;;;;;5.13;3.68;;;;;;;23.19;62.00;100691.98;258389;1095;114510;-74
2021/06/05 14:20:45;;;;;;;3.93;3.63;;;;;;;23.18;57.93;100695.72;258300;1095;114941;-74
2021/06/05 14:25:54;;;;;;;4.03;3.73;;;;;;;23.21;56.81;100701.75;257728;1096;114508;-71
2021/06/05 14:30:59;;;;;;;4.25;3.88;;;;;;;23.24;57.64;100700.61;258242;1096;114886;-74
2021/06/05 14:36:05;;;;;;;3.68;3.48;;;;;;;23.22;55.93;100692.56;259300;1096;114925;-72
2021/06/05 14:41:13;;;;;;;3.45;3.25;;;;;;;23.05;53.58;100694.03;258359;1095;115123;-73
2021/06/05 14:46:20;;;;;;;3.15;2.95;;;;;;;23.18;55.22;100698.44;257876;1095;114694;-76
2021/06/05 14:51:23;;;;;;;8.13;7.30;;;;;;;23.40;53.03;100695.50;258063;1096;114425;-73
2021/06/05 14:56:28;;;;;;;5.03;4.40;;;;;;;23.35;52.94;100686.91;258445;1094;114715;-73
2021/06/05 15:01:40;;;;;;;3.68;3.38;;;;;;;23.28;54.22;100679.44;257545;1095;114736;-70
2021/06/05 15:06:45;;;;;;;3.80;3.50;;;;;;;23.21;54.06;100673.68;257596;1096;114451;-71
2021/06/05 15:11:51;;;;;;;4.65;4.25;;;;;;;23.35;53.94;100678.74;257633;1096;114606;-74
2021/06/05 15:17:25;;;;;;;5.13;4.63;;;;;;;23.36;50.92;100677.75;257249;1096;114518;-72
2021/06/05 15:22:27;;;;;;;103.08;83.23;;;;;;;23.50;51.08;100667.48;257941;1096;114603;-72
2021/06/05 15:27:29;;;;;;;43.88;34.50;;;;;;;23.96;50.13;100674.20;258230;1095;115571;-70
2021/06/05 15:32:31;;;;;;;17.63;15.25;;;;;;;24.40;50.00;100664.71;257665;1096;114656;-71
2021/06/05 15:37:39;;;;;;;15.60;12.20;;;;;;;24.23;54.83;100664.45;258732;1096;115016;-73
2021/06/05 15:42:44;;;;;;;6.20;5.23;;;;;;;23.08;54.87;100677.47;257035;1095;115105;-75
2021/06/05 15:47:48;;;;;;;7.73;6.93;;;;;;;22.47;57.69;100685.55;256863;1096;114811;-70
2021/06/05 15:52:50;;;;;;;3.78;2.48;;;;;;;21.89;58.84;100684.02;258430;1096;114868;-70
2021/06/05 15:57:52;;;;;;;2.88;2.40;;;;;;;21.02;64.74;100693.68;257087;1096;114357;-71
2021/06/05 16:02:55;;;;;;;3.25;2.95;;;;;;;20.73;70.10;100677.88;257421;1095;114574;-73
2021/06/05 16:07:59;;;;;;;3.18;2.98;;;;;;;20.85;69.88;100676.05;258473;1096;114425;-71
2021/06/05 16:13:07;;;;;;;3.03;2.63;;;;;;;20.97;68.29;100668.80;258935;1096;114629;-74
2021/06/05 16:18:11;;;;;;;2.40;2.30;;;;;;;20.93;66.49;100673.61;257653;1095;114753;-72
2021/06/05 16:23:14;;;;;;;2.90;2.43;;;;;;;20.96;66.01;100672.49;257767;1095;114325;-71
2021/06/05 16:28:21;;;;;;;4.40;2.17;;;;;;;20.90;64.55;100678.41;258110;1096;114903;-69
2021/06/05 16:33:27;;;;;;;1.78;1.68;;;;;;;21.07;61.79;100677.94;258039;1096;114528;-72
2021/06/05 16:38:30;;;;;;;1.68;1.58;;;;;;;21.24;63.00;100675.70;257450;1095;114415;-72
2021/06/05 16:43:37;;;;;;;1.63;1.53;;;;;;;21.22;63.17;100672.24;257379;1095;114869;-74
2021/06/05 16:48:40;;;;;;;2.10;2.00;;;;;;;21.08;59.51;100670.66;258264;1095;114967;-71
2021/06/05 16:53:43;;;;;;;2.13;1.98;;;;;;;21.14;58.43;100670.16;258750;1095;114585;-73
2021/06/05 16:58:50;;;;;;;2.10;1.90;;;;;;;21.16;62.42;100679.89;258110;1095;115141;-71
2021/06/05 17:03:53;;;;;;;2.63;1.98;;;;;;;21.09;59.49;100685.94;258802;1096;114544;-71
2021/06/05 17:08:56;;;;;;;2.75;1.80;;;;;;;21.07;59.71;100680.65;258651;1096;115209;-71
2021/06/05 17:14:00;;;;;;;1.78;1.68;;;;;;;21.06;59.77;100675.33;258830;1095;114286;-72
2021/06/05 17:19:12;;;;;;;2.10;2.00;;;;;;;20.99;60.15;100681.24;257663;1096;114970;-71
2021/06/05 17:24:23;;;;;;;4.55;4.15;;;;;;;20.95;62.40;100681.61;258667;1096;114562;-70
2021/06/05 17:29:25;;;;;;;3.83;2.70;;;;;;;20.94;62.34;100685.30;258270;1096;114661;-71
2021/06/05 17:34:27;;;;;;;3.33;3.10;;;;;;;20.90;62.47;100689.24;258376;1096;115004;-70
2021/06/05 17:39:33;;;;;;;3.25;2.95;;;;;;;20.82;65.64;100679.88;256680;1095;114510;-70
2021/06/05 17:44:40;;;;;;;4.55;3.40;;;;;;;20.78;65.66;100672.98;257414;1096;114499;-75
2021/06/05 17:49:43;;;;;;;2.93;2.70;;;;;;;20.70;65.83;100678.95;257877;1096;114978;-74
2021/06/05 17:54:48;;;;;;;3.80;3.23;;;;;;;20.69;66.75;100679.93;258179;1095;115451;-73
2021/06/05 17:59:56;;;;;;;3.60;3.30;;;;;;;20.63;70.96;100679.56;258347;1095;114443;-72
2021/06/05 18:05:00;;;;;;;;;;;;;;;20.56;70.64;100687.29;257103;1096;114570;-71
2021/06/05 18:10:04;;;;;;;;;;;;;;;20.46;70.92;100679.02;256906;1096;103025;-71
2021/06/05 18:20:21;;;;;;;3.08;2.85;;;;;;;20.28;67.76;100686.71;257392;1095;114466;-72
2021/06/05 18:25:24;;;;;;;3.58;3.23;;;;;;;20.19;69.00;100690.98;258436;1095;115110;-70
2021/06/05 18:30:33;;;;;;;3.63;3.25;;;;;;;20.05;69.47;100702.84;258278;1095;115248;-72
2021/06/05 18:35:42;;;;;;;4.83;3.75;;;;;;;19.94;69.96;100707.36;257475;1095;114654;-72
2021/06/05 18:40:47;;;;;;;4.85;3.30;;;;;;;19.77;70.15;100712.13;257667;1095;114430;-73
2021/06/05 18:45:53;;;;;;;4.48;3.60;;;;;;;19.68;70.57;100718.21;258838;1095;114366;-72
2021/06/05 18:50:59;;;;;;;3.78;3.45;;;;;;;19.59;69.80;100709.79;257836;1096;115346;-71
2021/06/05 18:56:04;;;;;;;4.48;3.85;;;;;;;19.50;72.08;100721.30;258637;1095;114667;-71
2021/06/05 19:01:10;;;;;;;3.90;3.50;;;;;;;19.36;76.31;100727.69;257985;1095;114914;-72
2021/06/05 19:06:17;;;;;;;6.83;4.45;;;;;;;19.25;75.35;100727.61;258102;1095;114460;-71
2021/06/05 19:11:25;;;;;;;5.68;4.35;;;;;;;19.16;77.10;100734.53;258891;1096;114884;-72
2021/06/05 19:16:32;;;;;;;4.78;4.03;;;;;;;18.96;79.76;100733.23;257693;1096;114765;-71
2021/06/05 19:21:37;;;;;;;5.50;3.98;;;;;;;18.78;83.76;100736.19;257517;1096;114522;-71
2021/06/05 19:26:41;;;;;;;4.28;3.60;;;;;;;18.74;84.99;100723.88;258558;1096;114464;-72
2021/06/05 19:31:45;;;;;;;6.50;4.35;;;;;;;18.59;87.83;100735.73;258614;1096;115023;-72
2021/06/05 19:36:49;;;;;;;4.73;4.10;;;;;;;18.52;88.97;100739.82;256832;1096;114863;-73
2021/06/05 19:41:53;;;;;;;;;;;;;;;18.42;88.25;100728.78;259330;1096;172789;-71
2021/06/05 19:46:59;;;;;;;5.65;4.00;;;;;;;18.25;88.29;100738.02;256882;1095;103169;-71
2021/06/05 19:52:05;;;;;;;5.40;3.98;;;;;;;18.03;89.46;100735.90;257389;1096;114673;-72
2021/06/05 19:57:09;;;;;;;5.03;4.63;;;;;;;17.72;88.23;100737.86;256969;1095;114926;-73
2021/06/05 20:02:15;;;;;;;5.98;4.40;;;;;;;17.64;92.99;100757.23;257439;1095;114740;-72
2021/06/05 20:07:18;;;;;;;5.05;4.65;;;;;;;17.68;91.91;100762.33;259304;1096;114892;-71
2021/06/05 20:12:20;;;;;;;5.33;4.63;;;;;;;17.61;94.53;100766.38;258071;1095;115019;-72
2021/06/05 20:17:23;;;;;;;5.35;4.50;;;;;;;17.45;98.19;100771.00;257723;1096;114408;-71
2021/06/05 20:22:27;;;;;;;5.60;4.93;;;;;;;17.48;97.20;100774.38;257101;1096;114943;-72
2021/06/05 20:27:29;;;;;;;6.90;6.30;;;;;;;17.40;100.00;100762.35;258288;1096;114425;-72
2021/06/05 20:32:32;;;;;;;6.18;5.25;;;;;;;17.42;100.00;100760.41;257632;1095;115579;-71
2021/06/05 20:37:36;;;;;;;6.03;5.15;;;;;;;17.07;100.00;100766.16;257730;1096;114903;-75
2021/06/05 20:42:42;;;;;;;5.75;5.18;;;;;;;16.65;100.00;100768.65;257029;1095;114049;-75
2021/06/05 20:47:45;;;;;;;9.10;5.93;;;;;;;16.59;100.00;100761.80;258086;1096;113956;-71
2021/06/05 20:52:47;;;;;;;5.90;5.40;;;;;;;16.57;100.00;100769.09;257519;1096;113902;-74
2021/06/05 20:57:53;;;;;;;12.28;8.63;;;;;;;16.67;100.00;100769.44;257717;1095;115074;-71
2021/06/05 21:03:07;;;;;;;13.03;9.85;;;;;;;16.76;100.00;100768.01;258567;1096;114943;-70
2021/06/05 21:08:09;;;;;;;13.50;10.97;;;;;;;16.66;100.00;100770.39;257375;1095;114656;-71
2021/06/05 21:13:12;;;;;;;14.08;11.23;;;;;;;16.67;100.00;100774.81;257206;1096;114695;-70
2021/06/05 21:18:15;;;;;;;13.55;11.73;;;;;;;16.53;100.00;100767.55;257014;1095;115008;-71
2021/06/05 21:23:19;;;;;;;14.28;11.03;;;;;;;16.66;100.00;100773.94;256973;1096;115273;-70
2021/06/05 21:28:23;;;;;;;15.27;13.07;;;;;;;16.44;100.00;100779.73;256939;1096;115406;-69
2021/06/05 21:33:28;;;;;;;14.40;11.63;;;;;;;16.26;100.00;100784.35;256372;1096;115400;-69
2021/06/05 21:38:32;;;;;;;12.70;11.40;;;;;;;16.09;100.00;100783.48;256426;1096;114967;-70
2021/06/05 21:43:37;;;;;;;12.50;10.53;;;;;;;16.10;100.00;100776.30;255979;1096;115622;-70
2021/06/05 21:48:39;;;;;;;11.78;10.40;;;;;;;16.17;100.00;100779.49;257538;1095;115433;-69
2021/06/05 21:53:43;;;;;;;14.95;11.73;;;;;;;16.07;100.00;100782.70;257411;1096;115125;-70
2021/06/05 21:58:45;;;;;;;12.18;10.55;;;;;;;15.97;100.00;100781.50;256159;1096;115532;-71
2021/06/05 22:04:07;;;;;;;10.30;8.83;;;;;;;15.77;100.00;100778.09;256239;1096;115400;-71
2021/06/05 22:09:13;;;;;;;13.20;10.95;;;;;;;15.66;100.00;100787.70;256544;1096;114852;-73
2021/06/05 22:14:25;;;;;;;12.65;11.00;;;;;;;15.49;100.00;100791.30;257312;1096;115151;-71
2021/06/05 22:19:28;;;;;;;10.03;8.83;;;;;;;15.28;100.00;100788.83;256975;1095;115493;-71
2021/06/05 22:24:30;;;;;;;9.33;8.33;;;;;;;15.36;100.00;100789.29;257081;1096;114819;-73
2021/06/05 22:29:33;;;;;;;9.23;8.28;;;;;;;15.46;100.00;100782.45;257162;1096;114725;-74
2021/06/05 22:34:36;;;;;;;9.08;8.20;;;;;;;15.51;100.00;100784.00;257585;1095;115181;-74
2021/06/05 22:39:39;;;;;;;9.80;8.80;;;;;;;15.53;100.00;100776.73;257269;1095;114649;-71
2021/06/05 22:44:41;;;;;;;8.35;7.55;;;;;;;15.44;100.00;100772.75;257866;1095;114887;-70
2021/06/05 22:49:44;;;;;;;9.48;8.48;;;;;;;15.31;100.00;100764.47;258144;1095;114550;-71
2021/06/05 22:54:48;;;;;;;9.23;7.68;;;;;;;15.29;100.00;100763.71;257318;1096;115074;-71
2021/06/05 22:59:55;;;;;;;9.05;8.13;;;;;;;15.22;100.00;100757.79;259718;1095;114768;-71
2021/06/05 23:05:00;;;;;;;8.18;7.53;;;;;;;15.31;100.00;100756.42;257069;1096;114603;-73
2021/06/05 23:10:07;;;;;;;8.13;7.15;;;;;;;15.20;100.00;100748.08;259236;1095;115057;-72
2021/06/05 23:20:40;;;;;;;9.77;8.87;;;;;;;14.59;100.00;100753.02;257268;1098;115185;-71
2021/06/05 23:25:43;;;;;;;10.28;9.28;;;;;;;14.69;100.00;100756.98;257215;1099;114493;-70
2021/06/05 23:30:46;;;;;;;13.60;12.15;;;;;;;14.71;100.00;100755.09;257110;1098;115305;-70